Αρχική σελίδα
METAR-TAF:

METAR-TAF

Αεροδρόμια :

Pirassununga, Σάο Πάολο, Βραζιλία

γεωγραφικό πλάτος: 21-59S, γεωγραφικό μήκος: 047-20W, υψόμετρο: 597 μ

Παρών καιρός

Η αναφορά έγινε 1 ώρα και 7 λεπτά πριν, στις 20:00 UTC
Άνεμος 3 kt από Β/BΔ, μεταβλητός μεταξύ και BA
Θερμοκρασία 28°C
Υγρασία 37%
Πίεση 1020 hPa
Ορατότητα 10 χλμ και άνω
Δεν υπάρχουν νέφη με βάση κάτω από τα 1500 μ. και δεν υπάρχουν νέφη σωρειτομελανίτες.

METAR: SBYS 152000Z 33003KT 310V040 CAVOK 28/12 Q1020

Χρόνος: 18:07 (21:07 UTC)

Πρόγνωση Καιρού

Η αναφορά έγινε 6 ώρες και 7 λεπτά πριν, στις 15:00 UTC
Η πρόγνωση ισχύει από τις 15 στις 18 UTC έως τις 16 στις 06 UTC
Άνεμος 6 kt από BA
Ορατότητα 10 χλμ και άνω
Δεν υπάρχουν νέφη με βάση κάτω από τα 1500 μ. και δεν υπάρχουν νέφη σωρειτομελανίτες.

TAF: SBYS 151500Z 1518/1606 04006KT CAVOK TX28/1518Z TN18/1605Z RMK PBH

Μετεωρολογικές αναφορές και προγνώσεις για περισσότερα από 4000 αεροδρόμια (δελτία METAR και TAF).

Οι διαθέσιμοι σταθμοί απεικονίζονται στο χάρτη με κίτρινες και κόκκινες κουκκίδες.

Μετακινήστε το ποντίκι πάνω από τις κουκκίδες για να δείτε το όνομα του σταθμού.

Στη συνέχεια, κάντε κλικ για να δείτε τις μετεωρολογικές αναφορές και τις προγνώσεις καιρού.

Για να αλλάξετε το χάρτη: κάντε κλικ στα πράσινα κουμπιά με τον μαύρο σταυρό για να ζουμάρετε, στο πράσινο κουμπί με την παύλα για να αφαιρέσετε το ζουμ ή στα πράσινα βέλη για να αντιπαραβάλλετε χάρτες.


METAR-TAF: